Time;durP1;ratioP1;P1;durP2;ratioP2;P2;SDS_P1;SDS_P2;PMS_P1;PMS_P2;Temp;Humidity;BMP_temperature;BMP_pressure;BME280_temperature;BME280_humidity;BME280_pressure;Samples;Min_cycle;Max_cycle;Signal;HPM_P1;HPM_P2
2024/03/31 00:02:16;;;;;;;59.43;28.03;;;;;;;12.63;77.22;99154.31;5050648;28;20205;-78
2024/03/31 00:04:42;;;;;;;54.47;27.57;;;;;;;12.59;76.85;99150.97;5050835;28;20900;-78
2024/03/31 00:07:07;;;;;;;61.33;27.70;;;;;;;12.62;77.71;99152.59;5051311;28;20204;-78
2024/03/31 00:09:34;;;;;;;44.20;25.77;;;;;;;12.52;78.60;99129.47;5051464;28;20268;-77
2024/03/31 00:11:59;;;;;;;59.10;26.20;;;;;;;12.51;79.31;99116.47;5048231;28;20208;-78
2024/03/31 00:14:26;;;;;;;60.03;26.30;;;;;;;12.54;78.00;99129.41;5036995;28;20221;-78
2024/03/31 00:16:52;;;;;;;55.83;25.67;;;;;;;12.60;79.16;99130.88;5051087;28;20709;-78
2024/03/31 00:19:19;;;;;;;45.10;25.00;;;;;;;12.54;79.26;99125.94;5051439;28;20209;-78
2024/03/31 00:21:44;;;;;;;55.77;26.93;;;;;;;12.32;79.03;99133.03;5051389;28;20208;-78
2024/03/31 00:24:10;;;;;;;55.93;28.10;;;;;;;12.20;79.30;99138.00;5050731;28;20274;-78
2024/03/31 00:26:36;;;;;;;50.20;25.93;;;;;;;12.22;79.20;99129.16;5045541;28;20736;-78
2024/03/31 00:29:02;;;;;;;53.03;26.43;;;;;;;12.34;79.93;99116.44;5035199;28;20213;-78
2024/03/31 00:31:27;;;;;;;55.00;26.53;;;;;;;12.35;79.66;99111.13;5035389;28;20205;-78
2024/03/31 00:33:55;;;;;;;55.43;28.23;;;;;;;12.23;80.04;99115.19;5035174;28;20306;-78
2024/03/31 00:36:20;;;;;;;57.03;26.03;;;;;;;12.06;80.31;99117.72;5035066;28;20198;-78
2024/03/31 00:38:47;;;;;;;46.90;24.70;;;;;;;11.95;80.73;99093.81;5034886;28;20259;-78
2024/03/31 00:41:12;;;;;;;48.90;25.27;;;;;;;12.03;80.50;99078.63;5046841;28;20260;-78
2024/03/31 00:43:38;;;;;;;53.57;24.80;;;;;;;12.02;80.91;99084.78;5049468;28;20235;-78
2024/03/31 00:46:04;;;;;;;50.43;25.10;;;;;;;12.02;80.80;99069.09;5046369;28;20259;-78
2024/03/31 00:48:30;;;;;;;43.93;22.10;;;;;;;11.97;81.08;99060.59;5054716;28;20201;-77
2024/03/31 00:50:57;;;;;;;39.27;22.57;;;;;;;12.08;81.38;99047.88;5054061;28;20669;-78
2024/03/31 00:53:24;;;;;;;40.37;21.70;;;;;;;12.02;80.91;99048.19;5054445;28;20219;-76
2024/03/31 00:55:50;;;;;;;38.33;21.73;;;;;;;12.13;80.68;99056.38;5053689;28;20259;-79
2024/03/31 00:58:16;;;;;;;41.63;22.10;;;;;;;12.33;80.69;99044.94;5055166;28;20679;-78
2024/03/31 01:00:41;;;;;;;34.00;21.77;;;;;;;12.34;79.49;99057.09;5054582;28;20212;-78
2024/03/31 01:03:08;;;;;;;35.63;20.20;;;;;;;12.45;80.58;99049.56;5054390;28;20629;-78
2024/03/31 01:05:34;;;;;;;30.23;21.23;;;;;;;12.41;79.21;99070.75;5054777;28;20314;-78
2024/03/31 01:08:02;;;;;;;37.73;22.43;;;;;;;12.14;80.04;99086.00;5054828;28;20301;-78
2024/03/31 01:10:27;;;;;;;31.87;20.70;;;;;;;12.10;79.92;99093.13;5053424;28;20215;-78
2024/03/31 01:12:54;;;;;;;33.83;22.73;;;;;;;12.04;80.15;99078.56;5054418;28;20214;-78
2024/03/31 01:15:20;;;;;;;33.37;22.20;;;;;;;11.99;81.11;99067.47;5054311;28;20228;-78
2024/03/31 01:17:48;;;;;;;36.60;23.40;;;;;;;12.12;81.29;99054.66;5054308;28;20203;-78
2024/03/31 01:20:13;;;;;;;32.57;22.40;;;;;;;12.19;81.08;99053.47;5053860;28;20257;-79
2024/03/31 01:22:42;;;;;;;35.40;22.70;;;;;;;12.26;79.99;99061.84;5055209;28;20206;-78
2024/03/31 01:25:09;;;;;;;33.73;24.33;;;;;;;12.27;79.71;99079.25;5052951;28;20319;-78
2024/03/31 01:27:35;;;;;;;40.63;24.37;;;;;;;12.23;80.48;99078.56;5054430;28;20687;-78
2024/03/31 01:30:01;;;;;;;33.37;22.00;;;;;;;11.88;80.92;99078.41;5053940;28;20210;-78
2024/03/31 01:32:27;;;;;;;29.57;22.77;;;;;;;12.03;81.11;99066.41;5053609;28;20255;-78
2024/03/31 01:34:53;;;;;;;36.83;24.43;;;;;;;12.22;80.18;99053.28;5053837;28;20236;-78
2024/03/31 01:37:19;;;;;;;36.93;22.97;;;;;;;12.12;80.84;99070.34;5054382;28;20255;-78
2024/03/31 01:39:44;;;;;;;31.23;22.23;;;;;;;12.05;80.76;99075.03;5052383;28;20264;-79
2024/03/31 01:42:12;;;;;;;35.00;24.47;;;;;;;11.98;81.09;99073.63;5050541;28;20212;-78
2024/03/31 01:44:37;;;;;;;33.97;21.07;;;;;;;11.86;81.43;99063.69;5033876;28;20233;-78
2024/03/31 01:47:04;;;;;;;31.60;21.13;;;;;;;12.05;81.45;99055.84;5051563;28;20910;-78
2024/03/31 01:49:29;;;;;;;28.93;19.20;;;;;;;12.12;80.46;99071.19;5053172;28;20263;-78
2024/03/31 01:51:56;;;;;;;29.87;18.50;;;;;;;12.14;80.38;99060.66;5053880;28;20216;-78
2024/03/31 01:54:22;;;;;;;24.83;19.33;;;;;;;12.03;82.79;99050.72;5054025;28;20271;-78
2024/03/31 01:56:48;;;;;;;22.93;18.00;;;;;;;11.97;84.18;99031.84;5053650;28;20208;-78
2024/03/31 01:59:15;;;;;;;30.50;19.03;;;;;;;11.95;82.98;99033.69;5053683;28;20714;-79
2024/03/31 02:01:41;;;;;;;24.17;17.60;;;;;;;12.08;81.77;99042.66;5053516;28;20231;-79
2024/03/31 02:04:06;;;;;;;22.93;17.47;;;;;;;11.89;81.45;99060.97;5053561;28;20823;-78
2024/03/31 02:06:33;;;;;;;26.67;19.30;;;;;;;11.86;81.48;99063.69;5053318;28;20208;-78
2024/03/31 02:08:58;;;;;;;24.33;16.97;;;;;;;11.82;81.95;99065.59;5058190;28;20265;-77
2024/03/31 02:11:24;;;;;;;28.10;18.60;;;;;;;11.80;81.62;99061.38;5063777;28;20206;-78
2024/03/31 02:13:50;;;;;;;20.63;18.27;;;;;;;11.77;82.40;99061.50;5064184;28;20278;-78
2024/03/31 02:16:19;;;;;;;22.27;18.60;;;;;;;11.80;82.29;99046.53;5053304;28;20205;-78
2024/03/31 02:18:45;;;;;;;23.97;18.87;;;;;;;11.86;81.79;99043.63;5047129;28;20260;-78
2024/03/31 02:21:11;;;;;;;28.43;20.90;;;;;;;11.71;82.27;99044.34;5043771;28;20217;-77
2024/03/31 02:23:36;;;;;;;26.57;19.47;;;;;;;11.62;82.94;99032.53;5052436;28;20270;-77
2024/03/31 02:26:03;;;;;;;23.97;19.27;;;;;;;11.49;84.10;99016.56;5051746;28;20225;-78
2024/03/31 02:28:30;;;;;;;24.13;20.10;;;;;;;11.49;84.16;98997.44;5052273;28;20259;-79
2024/03/31 02:30:57;;;;;;;27.60;20.27;;;;;;;11.52;84.52;98986.84;5051871;28;20217;-78
2024/03/31 02:33:23;;;;;;;27.17;20.87;;;;;;;11.45;84.76;98982.81;5051962;28;20224;-77
2024/03/31 02:35:50;;;;;;;26.80;19.60;;;;;;;11.37;85.31;98971.88;5051910;28;20197;-77
2024/03/31 02:38:15;;;;;;;30.27;20.67;;;;;;;11.46;85.21;98955.78;5052333;28;20259;-77
2024/03/31 02:40:42;;;;;;;32.73;20.63;;;;;;;11.35;85.52;98961.50;5051300;28;20208;-77
2024/03/31 02:43:07;;;;;;;29.70;21.07;;;;;;;11.33;85.86;98942.44;5041809;28;20570;-77
2024/03/31 02:45:33;;;;;;;31.03;21.47;;;;;;;11.39;85.31;98951.75;5045479;28;20233;-77
2024/03/31 02:47:59;;;;;;;28.00;20.43;;;;;;;11.31;85.72;98957.31;5052002;28;20205;-78
2024/03/31 02:50:27;;;;;;;25.50;20.43;;;;;;;11.17;86.57;98946.66;5050727;28;20257;-78
2024/03/31 02:52:52;;;;;;;32.87;21.07;;;;;;;11.16;86.78;98938.00;5051640;28;20204;-78
2024/03/31 02:55:19;;;;;;;30.70;21.07;;;;;;;11.08;87.05;98934.84;5050821;28;20312;-77
2024/03/31 02:57:47;;;;;;;33.00;21.93;;;;;;;11.10;87.07;98918.22;5052103;28;20255;-75
2024/03/31 03:00:13;;;;;;;28.13;21.10;;;;;;;11.06;87.54;98910.56;5051554;28;20259;-77
2024/03/31 03:02:40;;;;;;;29.80;20.97;;;;;;;11.05;87.46;98907.13;5051196;28;20212;-77
2024/03/31 03:05:05;;;;;;;27.93;20.90;;;;;;;11.00;87.90;98910.84;5051129;28;20236;-77
2024/03/31 03:07:33;;;;;;;34.50;22.10;;;;;;;10.99;88.19;98899.56;5051800;28;20253;-77
2024/03/31 03:09:58;;;;;;;33.20;21.77;;;;;;;10.89;88.74;98893.91;5051314;28;20572;-77
2024/03/31 03:12:24;;;;;;;37.43;21.57;;;;;;;10.95;88.98;98881.50;5046881;28;20274;-77
2024/03/31 03:14:51;;;;;;;30.50;21.43;;;;;;;10.85;89.12;98894.13;5031716;28;20281;-76
2024/03/31 03:17:18;;;;;;;29.10;21.33;;;;;;;10.91;89.34;98883.41;5050556;28;20204;-78
2024/03/31 03:19:44;;;;;;;40.83;22.27;;;;;;;11.00;89.34;98884.75;5042945;28;20415;-77
2024/03/31 03:22:10;;;;;;;35.23;22.23;;;;;;;11.14;88.58;98900.66;5051456;28;20208;-77
2024/03/31 03:24:37;;;;;;;30.50;21.07;;;;;;;11.12;87.86;98907.72;5051119;28;20272;-78
2024/03/31 03:27:04;;;;;;;38.03;24.00;;;;;;;11.07;87.95;98920.97;5051210;28;20209;-77
2024/03/31 03:29:29;;;;;;;39.07;24.13;;;;;;;10.97;88.40;98916.22;5051575;28;20730;-77
2024/03/31 03:31:56;;;;;;;39.97;23.63;;;;;;;10.84;89.21;98914.19;5051307;28;20212;-77
2024/03/31 03:34:21;;;;;;;34.43;23.60;;;;;;;10.58;90.92;98890.97;5051658;28;20225;-77
2024/03/31 03:36:47;;;;;;;36.70;23.30;;;;;;;10.54;92.01;98866.78;5051165;28;20261;-77
2024/03/31 03:39:17;;;;;;;43.70;24.80;;;;;;;10.69;91.76;98852.22;5051136;28;20325;-77
2024/03/31 03:41:44;;;;;;;36.27;24.53;;;;;;;10.80;90.81;98856.94;5045078;28;20227;-77
2024/03/31 03:44:11;;;;;;;28.83;23.97;;;;;;;10.72;91.01;98873.81;5033186;28;20225;-77
2024/03/31 03:46:36;;;;;;;29.40;23.23;;;;;;;10.96;90.50;98871.00;5031080;28;20581;-77
2024/03/31 03:49:02;;;;;;;39.30;24.57;;;;;;;10.79;90.49;98883.97;5048280;28;20205;-78
2024/03/31 03:51:28;;;;;;;32.60;24.67;;;;;;;10.61;91.69;98872.59;5051542;28;20203;-77
2024/03/31 03:53:54;;;;;;;42.73;24.87;;;;;;;10.59;92.15;98861.38;5051076;28;20232;-77
2024/03/31 03:56:20;;;;;;;29.87;23.83;;;;;;;10.70;92.76;98836.50;5050566;28;20201;-77
2024/03/31 03:58:47;;;;;;;35.40;23.20;;;;;;;10.86;92.20;98841.88;5051513;28;20213;-77
2024/03/31 04:01:13;;;;;;;37.87;24.43;;;;;;;10.86;91.61;98848.81;5046367;28;20279;-77
2024/03/31 04:03:39;;;;;;;36.20;24.50;;;;;;;10.63;91.56;98861.16;5054432;28;20233;-78
2024/03/31 04:06:05;;;;;;;36.33;23.27;;;;;;;10.45;92.39;98847.19;5054983;28;20223;-77
2024/03/31 04:08:31;;;;;;;38.33;25.30;;;;;;;10.60;92.86;98829.97;5054535;28;20198;-77
2024/03/31 04:10:57;;;;;;;38.30;24.40;;;;;;;10.62;92.74;98822.09;5053742;28;20204;-77
2024/03/31 04:13:26;;;;;;;39.70;24.10;;;;;;;10.69;92.16;98824.34;5042641;28;20896;-77
2024/03/31 04:16:00;;;;;;;37.30;23.93;;;;;;;10.87;91.93;98822.66;5050044;28;20202;-77
2024/03/31 04:18:26;;;;;;;36.43;24.13;;;;;;;11.04;90.83;98832.34;5034642;28;20198;-77
2024/03/31 04:20:52;;;;;;;30.80;24.17;;;;;;;11.15;90.70;98833.59;5034647;28;20213;-77
2024/03/31 04:23:18;;;;;;;33.10;24.27;;;;;;;11.33;90.31;98848.38;5034836;28;20656;-77
2024/03/31 04:25:43;;;;;;;32.67;22.95;;;;;;;11.39;89.16;98873.38;5034117;28;20451;-77
2024/03/31 04:28:10;;;;;;;32.97;24.33;;;;;;;10.97;88.92;98900.56;5034756;28;20210;-78
2024/03/31 04:30:39;;;;;;;31.23;25.30;;;;;;;10.83;90.26;98893.38;5034285;28;20730;-77
2024/03/31 04:33:07;;;;;;;28.73;24.40;;;;;;;10.51;92.07;98877.38;5034207;28;20672;-77
2024/03/31 04:35:34;;;;;;;31.47;25.80;;;;;;;10.49;93.53;98842.69;5034372;28;20202;-77
2024/03/31 04:38:01;;;;;;;40.30;28.67;;;;;;;10.43;94.07;98822.91;5034853;28;20295;-78
2024/03/31 04:40:26;;;;;;;30.67;25.67;;;;;;;10.46;94.17;98814.09;5045458;28;20211;-77
2024/03/31 04:42:52;;;;;;;30.87;25.03;;;;;;;10.62;93.85;98809.03;5047741;28;20632;-77
2024/03/31 04:45:18;;;;;;;29.83;24.27;;;;;;;10.58;93.85;98800.50;5034344;28;20730;-78
2024/03/31 04:47:44;;;;;;;35.90;25.00;;;;;;;10.66;93.59;98794.94;5048524;28;20253;-77
2024/03/31 04:50:11;;;;;;;27.37;24.47;;;;;;;10.81;93.42;98799.47;5053558;28;20205;-77
2024/03/31 04:52:37;;;;;;;28.27;23.33;;;;;;;11.08;92.99;98806.91;5054397;28;20204;-77
2024/03/31 04:55:03;;;;;;;29.20;24.03;;;;;;;11.24;91.00;98814.88;5054082;28;20960;-76
2024/03/31 04:57:29;;;;;;;26.90;22.90;;;;;;;11.10;89.84;98857.31;5054845;28;20256;-77
2024/03/31 04:59:55;;;;;;;29.50;23.47;;;;;;;11.04;89.60;98870.63;5054422;28;20216;-77
2024/03/31 05:02:21;;;;;;;29.67;24.03;;;;;;;10.72;91.17;98870.34;5053432;28;20209;-77
2024/03/31 05:04:46;;;;;;;27.13;24.33;;;;;;;10.79;91.96;98853.50;5053246;28;20232;-77
2024/03/31 05:07:14;;;;;;;27.57;24.23;;;;;;;10.44;92.89;98842.84;5053744;28;20263;-77
2024/03/31 05:09:39;;;;;;;28.10;25.33;;;;;;;10.41;94.13;98813.47;5053485;28;20208;-77
2024/03/31 05:12:06;;;;;;;32.13;25.60;;;;;;;10.45;94.20;98804.59;5051966;28;20247;-77
2024/03/31 05:14:32;;;;;;;28.17;25.30;;;;;;;10.58;94.45;98786.63;5035158;28;20705;-77
2024/03/31 05:16:58;;;;;;;29.73;23.90;;;;;;;10.61;94.04;98781.28;5045559;28;20209;-77
2024/03/31 05:19:24;;;;;;;30.57;25.97;;;;;;;10.48;94.44;98770.53;5052861;28;20299;-78
2024/03/31 05:21:50;;;;;;;29.33;26.33;;;;;;;10.45;94.68;98762.88;5053537;28;20632;-77
2024/03/31 05:24:18;;;;;;;25.90;23.23;;;;;;;10.75;93.66;98750.16;5052945;28;20280;-77
2024/03/31 05:26:45;;;;;;;27.93;24.77;;;;;;;10.99;92.58;98766.41;5053296;28;20634;-77
2024/03/31 05:29:10;;;;;;;30.57;23.73;;;;;;;11.10;91.36;98781.59;5053055;28;20679;-78
2024/03/31 05:31:36;;;;;;;26.97;24.37;;;;;;;11.00;89.70;98809.91;5053245;28;20247;-76
2024/03/31 05:34:03;;;;;;;30.97;24.50;;;;;;;10.82;91.28;98811.59;5052844;28;20228;-78
2024/03/31 05:36:29;;;;;;;33.33;25.83;;;;;;;10.70;92.19;98823.44;5045217;28;20321;-77
2024/03/31 05:38:55;;;;;;;31.37;25.40;;;;;;;10.85;91.94;98811.44;5044491;28;20247;-78
2024/03/31 05:41:22;;;;;;;28.83;25.83;;;;;;;10.65;92.62;98820.19;5050182;28;20203;-77
2024/03/31 05:43:48;;;;;;;30.77;27.07;;;;;;;10.53;93.83;98811.16;5038948;28;20234;-77
2024/03/31 05:46:14;;;;;;;35.03;27.70;;;;;;;10.43;95.06;98790.78;5133797;22;20239;-79
2024/03/31 05:48:40;;;;;;;30.77;27.10;;;;;;;10.29;95.96;98776.56;5116141;28;20207;-79
2024/03/31 05:51:06;;;;;;;31.80;27.47;;;;;;;10.47;95.52;98764.47;5101250;28;20215;-79
2024/03/31 05:53:31;;;;;;;33.97;28.13;;;;;;;10.38;95.54;98770.09;5099873;28;20205;-78
2024/03/31 05:55:58;;;;;;;35.60;29.67;;;;;;;10.40;96.23;98764.81;5100234;28;20280;-78
2024/03/31 05:58:24;;;;;;;34.17;30.27;;;;;;;10.29;97.11;98758.31;5077824;28;20222;-79
2024/03/31 06:00:51;;;;;;;42.37;32.20;;;;;;;10.32;97.17;98742.53;5094917;28;20211;-79
2024/03/31 06:03:16;;;;;;;35.80;30.77;;;;;;;10.42;96.75;98740.34;5099269;28;20203;-79
2024/03/31 06:05:43;;;;;;;36.63;32.73;;;;;;;10.31;96.92;98753.06;5099784;28;20222;-78
2024/03/31 06:08:08;;;;;;;34.90;30.83;;;;;;;10.49;97.35;98744.38;5099033;28;20232;-78
2024/03/31 06:10:36;;;;;;;37.53;31.07;;;;;;;10.55;96.64;98758.06;5096991;28;20213;-79
2024/03/31 06:13:01;;;;;;;43.30;32.37;;;;;;;10.63;95.51;98772.44;5098756;28;20713;-79
2024/03/31 06:15:29;;;;;;;42.07;34.23;;;;;;;10.52;96.11;98778.16;5097792;28;20227;-78
2024/03/31 06:17:54;;;;;;;37.27;31.73;;;;;;;10.58;97.42;98765.75;5098454;28;20209;-78
2024/03/31 06:20:20;;;;;;;36.20;32.27;;;;;;;10.80;96.39;98765.59;5097543;28;20207;-78
2024/03/31 06:22:48;;;;;;;33.97;30.47;;;;;;;10.98;95.46;98776.94;5099008;28;20210;-79
2024/03/31 06:25:14;;;;;;;44.87;34.40;;;;;;;11.02;93.59;98805.44;5098887;28;20281;-78
2024/03/31 06:27:40;;;;;;;41.60;34.80;;;;;;;11.04;92.31;98832.34;5099714;28;20219;-78
2024/03/31 06:30:07;;;;;;;44.77;35.50;;;;;;;11.02;92.34;98848.97;5098703;28;20211;-78
2024/03/31 06:32:34;;;;;;;44.53;34.93;;;;;;;11.20;92.04;98855.09;5093852;28;20900;-78
2024/03/31 06:35:00;;;;;;;38.83;31.73;;;;;;;11.34;91.93;98865.75;5097973;28;20204;-79
2024/03/31 06:37:26;;;;;;;36.77;32.50;;;;;;;11.46;91.72;98869.56;5098141;28;20215;-78
2024/03/31 06:39:52;;;;;;;35.27;31.47;;;;;;;11.56;91.06;98883.03;5088369;28;20230;-79
2024/03/31 06:42:17;;;;;;;36.20;32.40;;;;;;;11.65;90.87;98887.78;5098181;28;20255;-79
2024/03/31 06:44:44;;;;;;;38.23;34.27;;;;;;;11.65;89.73;98904.31;5098406;28;20799;-79
2024/03/31 06:47:10;;;;;;;48.10;37.60;;;;;;;11.43;88.65;98935.84;5097229;28;20730;-78
2024/03/31 06:49:38;;;;;;;41.00;36.47;;;;;;;11.55;88.96;98934.44;5098185;28;20200;-79
2024/03/31 06:52:04;;;;;;;45.53;37.37;;;;;;;11.47;88.45;98962.69;5098204;28;20210;-79
2024/03/31 06:54:31;;;;;;;42.30;36.63;;;;;;;11.31;89.92;98958.16;5098020;28;20669;-79
2024/03/31 06:56:56;;;;;;;41.13;36.63;;;;;;;11.47;89.44;98960.91;5097851;28;20295;-78
2024/03/31 06:59:22;;;;;;;40.23;36.03;;;;;;;11.62;89.29;98967.19;5095908;28;20231;-78
2024/03/31 07:01:48;;;;;;;46.50;38.10;;;;;;;11.65;89.54;98959.19;5078361;28;20207;-79
2024/03/31 07:04:15;;;;;;;42.00;37.53;;;;;;;11.50;88.87;98979.06;5078310;28;20218;-79
2024/03/31 07:06:42;;;;;;;48.53;40.63;;;;;;;11.34;89.28;98975.47;5078690;28;20224;-78
2024/03/31 07:09:08;;;;;;;49.30;39.87;;;;;;;11.14;90.48;98955.50;5078226;28;20601;-78
2024/03/31 07:11:34;;;;;;;51.70;43.27;;;;;;;11.07;91.22;98938.41;5097110;28;20197;-77
2024/03/31 07:14:00;;;;;;;52.27;42.83;;;;;;;10.80;93.75;98896.97;5098727;28;20246;-78
2024/03/31 07:16:26;;;;;;;55.63;43.40;;;;;;;10.68;95.17;98872.25;5098470;28;20223;-78
2024/03/31 07:18:52;;;;;;;56.07;43.30;;;;;;;10.70;96.55;98851.28;5097883;28;20215;-78
2024/03/31 07:21:18;;;;;;;54.03;48.30;;;;;;;11.06;95.98;98830.50;5096666;28;20836;-78
2024/03/31 07:23:46;;;;;;;57.60;45.50;;;;;;;10.98;94.18;98845.69;5082293;28;20208;-77
2024/03/31 07:26:12;;;;;;;55.50;44.67;;;;;;;11.17;94.05;98852.66;5072220;28;20228;-77
2024/03/31 07:28:38;;;;;;;47.60;42.20;;;;;;;11.36;93.55;98844.75;5072830;28;20578;-76
2024/03/31 07:31:04;;;;;;;50.10;42.27;;;;;;;11.43;93.34;98857.47;5073721;28;20905;-77
2024/03/31 07:33:30;;;;;;;48.57;42.53;;;;;;;11.49;92.99;98861.56;5073929;28;20207;-77
2024/03/31 07:35:56;;;;;;;50.20;41.50;;;;;;;11.60;92.14;98868.91;5073067;28;20228;-77
2024/03/31 07:38:22;;;;;;;49.77;41.97;;;;;;;11.31;93.34;98881.56;5078442;28;20250;-77
2024/03/31 07:40:49;;;;;;;54.30;41.60;;;;;;;11.08;95.27;98856.50;5096588;28;20216;-77
2024/03/31 07:43:21;;;;;;;55.43;46.37;;;;;;;11.06;98.07;98827.03;5095934;28;20218;-77
2024/03/31 07:45:47;;;;;;;52.57;44.13;;;;;;;10.97;100.00;98789.16;5080833;28;20908;-76
2024/03/31 07:48:13;;;;;;;49.80;40.87;;;;;;;10.99;100.00;98782.09;5075628;28;20266;-77
2024/03/31 07:50:40;;;;;;;43.13;38.70;;;;;;;11.18;99.53;98781.19;5076548;28;20630;-77
2024/03/31 07:53:06;;;;;;;47.08;41.63;;;;;;;11.11;98.57;98802.38;5077013;28;20438;-77
2024/03/31 07:55:32;;;;;;;43.90;39.07;;;;;;;11.12;98.67;98806.72;5075557;28;20356;-77
2024/03/31 07:57:59;;;;;;;48.73;38.13;;;;;;;11.30;98.61;98802.38;5076854;28;20227;-77
2024/03/31 08:00:25;;;;;;;46.77;37.83;;;;;;;11.36;98.39;98809.06;5079168;28;20208;-76
2024/03/31 08:02:51;;;;;;;43.53;38.83;;;;;;;11.48;98.10;98818.91;5095681;28;20743;-77
2024/03/31 08:05:18;;;;;;;47.37;39.27;;;;;;;11.38;95.66;98846.41;5095904;28;20766;-77
2024/03/31 08:07:44;;;;;;;46.80;39.50;;;;;;;11.45;95.83;98866.06;5078764;28;20262;-78
2024/03/31 08:10:09;;;;;;;41.97;35.90;;;;;;;11.62;95.78;98867.06;5085793;28;20677;-77
2024/03/31 08:12:36;;;;;;;48.13;39.27;;;;;;;11.42;96.09;98865.41;5098734;28;20328;-78
2024/03/31 08:15:04;;;;;;;46.20;40.40;;;;;;;10.77;98.91;98857.94;5098039;28;20478;-77
2024/03/31 08:17:30;;;;;;;44.20;39.20;;;;;;;10.75;100.00;98804.13;5090677;28;20232;-77
2024/03/31 08:19:55;;;;;;;48.33;41.67;;;;;;;10.60;100.00;98772.56;5095986;28;20208;-77
2024/03/31 08:22:22;;;;;;;54.77;43.30;;;;;;;10.63;100.00;98741.13;5095566;28;20585;-77
2024/03/31 08:24:48;;;;;;;47.77;41.63;;;;;;;10.70;100.00;98723.41;5095191;28;20206;-77
2024/03/31 08:27:15;;;;;;;47.33;42.10;;;;;;;10.96;100.00;98716.97;5094481;28;20284;-77
2024/03/31 08:29:40;;;;;;;53.03;44.53;;;;;;;10.91;100.00;98729.41;5095100;28;20250;-77
2024/03/31 08:32:08;;;;;;;48.77;43.50;;;;;;;11.00;100.00;98715.03;5094428;28;20208;-77
2024/03/31 08:34:33;;;;;;;54.93;43.60;;;;;;;10.90;100.00;98715.50;5100459;28;20210;-78
2024/03/31 08:37:00;;;;;;;55.20;45.00;;;;;;;10.73;100.00;98710.25;5098803;28;20223;-78
2024/03/31 08:39:25;;;;;;;52.50;46.50;;;;;;;10.74;100.00;98701.47;5096248;28;20473;-77
2024/03/31 08:42:00;;;;;;;62.37;48.20;;;;;;;10.81;100.00;98686.38;5096391;28;20252;-78
2024/03/31 08:44:25;;;;;;;60.73;49.77;;;;;;;10.79;100.00;98703.88;5097066;28;20208;-79
2024/03/31 08:46:53;;;;;;;70.53;52.30;;;;;;;10.98;100.00;98703.81;5079603;28;20232;-79
2024/03/31 08:49:20;;;;;;;73.87;55.47;;;;;;;11.11;100.00;98702.31;5077231;28;20204;-78
2024/03/31 08:51:48;;;;;;;74.27;54.90;;;;;;;11.32;100.00;98731.78;5076329;28;20204;-78
2024/03/31 08:54:13;;;;;;;79.83;53.73;;;;;;;11.21;100.00;98749.72;5077006;28;20215;-78
2024/03/31 08:56:40;;;;;;;71.60;52.37;;;;;;;11.42;100.00;98750.44;5075086;28;20249;-78
2024/03/31 08:59:05;;;;;;;65.20;51.00;;;;;;;11.71;100.00;98754.19;5076768;28;20207;-78
2024/03/31 09:01:35;;;;;;;66.20;49.50;;;;;;;11.84;99.62;98791.03;5078331;28;20624;-78
2024/03/31 09:04:01;;;;;;;67.73;51.93;;;;;;;11.56;98.95;98812.47;5078140;28;20205;-78
2024/03/31 09:06:29;;;;;;;65.43;50.67;;;;;;;11.81;98.59;98838.22;5077661;28;20256;-77
2024/03/31 09:08:55;;;;;;;68.40;56.13;;;;;;;12.00;98.46;98843.41;5076789;28;20212;-78
2024/03/31 09:11:21;;;;;;;71.43;56.03;;;;;;;11.91;97.26;98860.41;5092578;28;20433;-78
2024/03/31 09:13:47;;;;;;;63.57;54.03;;;;;;;11.79;96.29;98882.72;5097730;28;20864;-78
2024/03/31 09:16:13;;;;;;;68.93;54.80;;;;;;;12.06;96.21;98874.50;5096580;28;20224;-78
2024/03/31 09:18:39;;;;;;;63.10;52.27;;;;;;;12.26;94.82;98892.63;5095853;28;20234;-77
2024/03/31 09:21:05;;;;;;;64.00;51.63;;;;;;;12.29;94.10;98913.41;5094528;28;20212;-77
2024/03/31 09:23:32;;;;;;;65.40;52.73;;;;;;;12.45;93.35;98923.13;5095503;28;20585;-78
2024/03/31 09:26:00;;;;;;;65.70;51.57;;;;;;;12.57;92.45;98942.59;5095676;28;20231;-78
2024/03/31 09:28:25;;;;;;;63.27;50.73;;;;;;;12.57;91.79;98958.28;5097210;28;20646;-78
2024/03/31 09:30:51;;;;;;;65.03;51.50;;;;;;;12.14;92.14;98983.97;5092270;28;20227;-77
2024/03/31 09:33:17;;;;;;;60.00;52.30;;;;;;;11.83;94.26;98951.41;5092804;28;20211;-77
2024/03/31 09:35:45;;;;;;;69.07;53.97;;;;;;;11.76;95.72;98919.50;5094352;28;20222;-76
2024/03/31 09:38:11;;;;;;;68.50;53.90;;;;;;;11.64;96.60;98907.88;5094601;28;20202;-77
2024/03/31 09:40:40;;;;;;;70.00;55.20;;;;;;;11.80;96.38;98888.84;5095165;28;20271;-77
2024/03/31 09:43:05;;;;;;;69.13;57.27;;;;;;;11.69;96.49;98892.81;5095006;28;20237;-77
2024/03/31 09:45:32;;;;;;;73.10;56.77;;;;;;;11.74;96.83;98871.69;5093498;28;20272;-78
2024/03/31 09:48:02;;;;;;;70.80;56.57;;;;;;;11.88;97.04;98871.00;5093356;28;20241;-76
2024/03/31 09:50:34;;;;;;;68.20;55.27;;;;;;;12.12;95.42;98868.94;5093809;28;20666;-77
2024/03/31 09:53:02;;;;;;;60.40;52.57;;;;;;;12.26;94.90;98876.09;5095685;28;20630;-77
2024/03/31 09:55:34;;;;;;;63.17;51.93;;;;;;;12.44;93.67;98898.69;5096100;28;20344;-78
2024/03/31 09:58:05;;;;;;;60.43;51.27;;;;;;;12.61;91.92;98920.56;5095004;28;20251;-78
2024/03/31 10:00:32;;;;;;;58.73;48.93;;;;;;;12.69;91.14;98941.94;5083615;28;20215;-77
2024/03/31 10:03:02;;;;;;;64.00;51.43;;;;;;;12.83;89.91;98963.00;5074694;28;20238;-77
2024/03/31 10:05:32;;;;;;;64.30;50.13;;;;;;;12.98;89.53;98977.06;5088549;28;20224;-77
2024/03/31 10:07:59;;;;;;;59.53;49.80;;;;;;;13.14;89.11;98997.22;5094987;28;20268;-77
2024/03/31 10:10:27;;;;;;;59.60;49.30;;;;;;;13.32;87.55;99019.88;5094202;28;20216;-77
2024/03/31 10:12:53;;;;;;;66.67;51.07;;;;;;;13.46;87.11;99040.13;5095715;28;20199;-78
2024/03/31 10:15:22;;;;;;;63.27;52.33;;;;;;;13.59;86.81;99056.03;5095603;28;20256;-77
2024/03/31 10:17:49;;;;;;;62.87;52.03;;;;;;;13.81;86.19;99053.94;5095887;28;20221;-78
2024/03/31 10:20:18;;;;;;;69.63;56.27;;;;;;;14.00;86.14;99066.91;5094749;28;20298;-78
2024/03/31 10:22:45;;;;;;;67.13;54.37;;;;;;;14.04;85.79;99067.56;5095382;28;20207;-79
2024/03/31 10:25:12;;;;;;;62.47;52.63;;;;;;;14.12;85.31;99065.38;5096028;28;20238;-79
2024/03/31 10:27:41;;;;;;;65.43;54.43;;;;;;;14.16;85.07;99058.19;5096438;28;20224;-79
2024/03/31 10:30:09;;;;;;;65.13;54.00;;;;;;;14.23;83.40;99080.50;5096465;28;20662;-79
2024/03/31 10:32:36;;;;;;;64.70;52.57;;;;;;;14.25;82.60;99118.00;5095800;28;20277;-79
2024/03/31 10:35:04;;;;;;;67.20;52.93;;;;;;;14.26;84.36;99109.22;5095671;28;20425;-79
2024/03/31 10:37:31;;;;;;;63.00;53.77;;;;;;;14.15;84.67;99086.19;5096207;28;20238;-79
2024/03/31 10:39:58;;;;;;;68.53;54.43;;;;;;;14.29;84.59;99074.91;5094640;28;20211;-79
2024/03/31 10:42:24;;;;;;;59.27;51.67;;;;;;;14.41;84.13;99071.63;5094277;28;20723;-79
2024/03/31 10:44:52;;;;;;;59.83;51.30;;;;;;;14.52;82.36;99109.53;5094641;28;20685;-79
2024/03/31 10:47:18;;;;;;;60.47;50.63;;;;;;;14.58;82.37;99119.72;5094879;28;20625;-79
2024/03/31 10:49:46;;;;;;;61.70;49.10;;;;;;;14.63;82.41;99130.81;5094239;28;20206;-79
2024/03/31 10:52:13;;;;;;;64.10;52.17;;;;;;;14.70;81.52;99143.50;5095010;28;20236;-79
2024/03/31 10:54:40;;;;;;;71.67;56.83;;;;;;;14.68;81.95;99137.47;5083354;28;20203;-79
2024/03/31 10:57:10;;;;;;;66.97;56.23;;;;;;;14.60;82.63;99155.47;5073773;28;20220;-79
2024/03/31 10:59:38;;;;;;;70.50;59.40;;;;;;;14.77;82.75;99116.91;5072373;28;20205;-78
2024/03/31 11:02:10;;;;;;;73.83;58.03;;;;;;;14.99;82.00;99119.97;5078929;28;20208;-78
2024/03/31 11:04:36;;;;;;;66.70;52.07;;;;;;;14.98;81.17;99149.78;5089225;28;20212;-77
2024/03/31 11:07:05;;;;;;;60.33;51.00;;;;;;;15.19;81.38;99144.25;5098453;28;20255;-77
2024/03/31 11:09:31;;;;;;;57.77;46.97;;;;;;;15.37;82.85;99130.00;5097359;28;20258;-77
2024/03/31 11:11:57;;;;;;;51.03;43.60;;;;;;;15.59;81.57;99126.09;5100963;28;20208;-78
2024/03/31 11:14:24;;;;;;;43.30;36.23;;;;;;;15.78;79.33;99153.00;5079048;28;20201;-77